sensor_id;sensor_type;location;lat;lon;timestamp;pressure;altitude;pressure_sealevel;temperature;humidity
11049;BME280;5577;42.706;23.160;2022-09-27T00:00:41;93276.81;;;15.93;100.00
11049;BME280;5577;42.706;23.160;2022-09-27T00:03:25;93275.03;;;15.83;100.00
11049;BME280;5577;42.706;23.160;2022-09-27T00:06:23;93292.16;;;15.82;100.00
11049;BME280;5577;42.706;23.160;2022-09-27T00:09:08;93294.53;;;15.77;100.00
11049;BME280;5577;42.706;23.160;2022-09-27T00:11:53;93310.13;;;15.78;100.00
11049;BME280;5577;42.706;23.160;2022-09-27T00:14:37;93306.47;;;15.65;100.00
11049;BME280;5577;42.706;23.160;2022-09-27T00:17:21;93328.88;;;15.71;100.00
11049;BME280;5577;42.706;23.160;2022-09-27T00:20:06;93331.59;;;15.68;100.00
11049;BME280;5577;42.706;23.160;2022-09-27T00:22:50;93328.97;;;15.64;100.00
11049;BME280;5577;42.706;23.160;2022-09-27T00:25:34;93323.63;;;15.64;100.00
11049;BME280;5577;42.706;23.160;2022-09-27T00:28:18;93333.56;;;15.64;100.00
11049;BME280;5577;42.706;23.160;2022-09-27T00:31:02;93329.75;;;15.61;100.00
11049;BME280;5577;42.706;23.160;2022-09-27T00:33:48;93311.88;;;15.58;100.00
11049;BME280;5577;42.706;23.160;2022-09-27T00:36:33;93315.34;;;15.55;100.00
11049;BME280;5577;42.706;23.160;2022-09-27T00:39:17;93309.63;;;15.57;100.00
11049;BME280;5577;42.706;23.160;2022-09-27T00:42:01;93308.88;;;15.53;100.00
11049;BME280;5577;42.706;23.160;2022-09-27T00:45:16;93291.72;;;15.54;100.00
11049;BME280;5577;42.706;23.160;2022-09-27T00:48:04;93258.75;;;15.34;100.00
11049;BME280;5577;42.706;23.160;2022-09-27T00:50:51;93267.41;;;15.45;100.00
11049;BME280;5577;42.706;23.160;2022-09-27T00:53:49;93267.41;;;15.45;100.00
11049;BME280;5577;42.706;23.160;2022-09-27T00:56:35;93267.03;;;15.46;100.00
11049;BME280;5577;42.706;23.160;2022-09-27T00:59:44;93270.09;;;15.45;100.00
11049;BME280;5577;42.706;23.160;2022-09-27T01:02:30;93265.16;;;15.43;100.00
11049;BME280;5577;42.706;23.160;2022-09-27T01:05:17;93215.97;;;15.07;100.00
11049;BME280;5577;42.706;23.160;2022-09-27T01:08:03;93252.59;;;15.40;100.00
11049;BME280;5577;42.706;23.160;2022-09-27T01:20:54;93265.19;;;15.40;100.00
11049;BME280;5577;42.706;23.160;2022-09-27T01:36:19;93275.81;;;15.43;100.00
11049;BME280;5577;42.706;23.160;2022-09-27T01:45:04;93267.91;;;15.33;100.00
11049;BME280;5577;42.706;23.160;2022-09-27T01:48:00;93278.16;;;15.38;100.00
11049;BME280;5577;42.706;23.160;2022-09-27T01:53:34;93273.59;;;15.38;100.00
11049;BME280;5577;42.706;23.160;2022-09-27T01:59:22;93252.28;;;15.31;100.00
11049;BME280;5577;42.706;23.160;2022-09-27T02:02:11;93266.69;;;15.41;100.00
11049;BME280;5577;42.706;23.160;2022-09-27T02:04:59;93256.81;;;15.38;100.00
11049;BME280;5577;42.706;23.160;2022-09-27T02:07:55;93257.19;;;15.40;100.00
11049;BME280;5577;42.706;23.160;2022-09-27T02:10:42;93251.13;;;15.32;100.00
11049;BME280;5577;42.706;23.160;2022-09-27T02:26:09;93195.84;;;14.55;100.00
11049;BME280;5577;42.706;23.160;2022-09-27T02:29:15;93193.22;;;14.52;100.00
11049;BME280;5577;42.706;23.160;2022-09-27T02:32:03;93202.19;;;14.72;100.00
11049;BME280;5577;42.706;23.160;2022-09-27T02:34:48;93165.25;;;14.74;100.00
11049;BME280;5577;42.706;23.160;2022-09-27T02:37:33;93197.31;;;15.07;100.00
11049;BME280;5577;42.706;23.160;2022-09-27T02:40:17;93209.41;;;15.15;100.00
11049;BME280;5577;42.706;23.160;2022-09-27T02:43:04;93218.13;;;15.19;100.00
11049;BME280;5577;42.706;23.160;2022-09-27T02:49:03;93220.38;;;15.21;100.00
11049;BME280;5577;42.706;23.160;2022-09-27T03:04:26;93208.31;;;14.69;100.00
11049;BME280;5577;42.706;23.160;2022-09-27T03:07:13;93204.84;;;14.72;100.00
11049;BME280;5577;42.706;23.160;2022-09-27T03:09:57;93189.59;;;14.76;100.00
11049;BME280;5577;42.706;23.160;2022-09-27T03:12:41;93186.19;;;14.72;100.00
11049;BME280;5577;42.706;23.160;2022-09-27T03:15:25;93186.97;;;14.72;100.00
11049;BME280;5577;42.706;23.160;2022-09-27T03:18:09;93192.28;;;14.72;100.00
11049;BME280;5577;42.706;23.160;2022-09-27T03:20:53;93172.47;;;14.73;100.00
11049;BME280;5577;42.706;23.160;2022-09-27T03:23:37;93169.75;;;14.80;100.00
11049;BME280;5577;42.706;23.160;2022-09-27T03:26:21;93194.06;;;14.86;100.00
11049;BME280;5577;42.706;23.160;2022-09-27T03:29:05;93168.16;;;14.90;100.00
11049;BME280;5577;42.706;23.160;2022-09-27T03:31:49;93176.50;;;14.92;100.00
11049;BME280;5577;42.706;23.160;2022-09-27T03:34:33;93175.00;;;14.91;100.00
11049;BME280;5577;42.706;23.160;2022-09-27T03:37:17;93181.50;;;14.90;100.00
11049;BME280;5577;42.706;23.160;2022-09-27T03:40:01;93178.47;;;14.84;100.00
11049;BME280;5577;42.706;23.160;2022-09-27T03:42:45;93171.63;;;14.83;100.00
11049;BME280;5577;42.706;23.160;2022-09-27T03:45:29;93170.84;;;14.86;100.00
11049;BME280;5577;42.706;23.160;2022-09-27T03:48:12;93178.13;;;14.82;100.00
11049;BME280;5577;42.706;23.160;2022-09-27T03:50:57;93181.50;;;14.90;100.00
11049;BME280;5577;42.706;23.160;2022-09-27T03:53:41;93171.19;;;14.92;100.00
11049;BME280;5577;42.706;23.160;2022-09-27T03:56:25;93181.84;;;14.92;100.00
11049;BME280;5577;42.706;23.160;2022-09-27T03:59:09;93181.63;;;14.76;100.00
11049;BME280;5577;42.706;23.160;2022-09-27T04:01:53;93164.75;;;14.86;100.00
11049;BME280;5577;42.706;23.160;2022-09-27T04:04:38;93173.13;;;14.84;100.00
11049;BME280;5577;42.706;23.160;2022-09-27T04:07:23;93176.19;;;14.86;100.00
11049;BME280;5577;42.706;23.160;2022-09-27T04:10:07;93162.91;;;14.83;100.00
11049;BME280;5577;42.706;23.160;2022-09-27T04:12:51;93150.72;;;14.82;100.00
11049;BME280;5577;42.706;23.160;2022-09-27T04:15:35;93167.47;;;14.79;100.00
11049;BME280;5577;42.706;23.160;2022-09-27T04:18:22;93151.09;;;14.84;100.00
11049;BME280;5577;42.706;23.160;2022-09-27T04:21:06;93164.41;;;14.84;100.00
11049;BME280;5577;42.706;23.160;2022-09-27T04:23:50;93155.66;;;14.83;100.00
11049;BME280;5577;42.706;23.160;2022-09-27T04:26:34;93155.78;;;14.69;100.00
11049;BME280;5577;42.706;23.160;2022-09-27T04:29:18;93131.59;;;14.50;100.00
11049;BME280;5577;42.706;23.160;2022-09-27T04:32:02;93174.81;;;14.68;100.00
11049;BME280;5577;42.706;23.160;2022-09-27T04:34:45;93172.16;;;14.68;100.00
11049;BME280;5577;42.706;23.160;2022-09-27T04:38:02;93149.28;;;14.70;100.00
11049;BME280;5577;42.706;23.160;2022-09-27T04:40:46;93159.88;;;14.77;100.00
11049;BME280;5577;42.706;23.160;2022-09-27T04:43:32;93162.84;;;14.86;100.00
11049;BME280;5577;42.706;23.160;2022-09-27T04:46:16;93177.75;;;14.80;100.00
11049;BME280;5577;42.706;23.160;2022-09-27T04:49:00;93171.56;;;14.90;100.00
11049;BME280;5577;42.706;23.160;2022-09-27T04:51:44;93166.22;;;14.94;100.00
11049;BME280;5577;42.706;23.160;2022-09-27T04:54:28;93173.00;;;14.98;100.00
11049;BME280;5577;42.706;23.160;2022-09-27T04:57:12;93165.50;;;14.90;100.00
11049;BME280;5577;42.706;23.160;2022-09-27T04:59:57;93165.56;;;14.83;100.00
11049;BME280;5577;42.706;23.160;2022-09-27T05:02:45;93157.84;;;14.92;100.00
11049;BME280;5577;42.706;23.160;2022-09-27T05:05:30;93151.50;;;14.79;100.00
11049;BME280;5577;42.706;23.160;2022-09-27T05:08:15;93144.66;;;14.81;100.00
11049;BME280;5577;42.706;23.160;2022-09-27T05:10:59;93147.25;;;14.85;100.00
11049;BME280;5577;42.706;23.160;2022-09-27T05:13:43;93137.00;;;14.83;100.00
11049;BME280;5577;42.706;23.160;2022-09-27T05:16:27;93144.13;;;14.97;100.00
11049;BME280;5577;42.706;23.160;2022-09-27T05:19:11;93132.63;;;15.00;100.00
11049;BME280;5577;42.706;23.160;2022-09-27T05:21:55;93133.72;;;15.06;100.00
11049;BME280;5577;42.706;23.160;2022-09-27T05:24:39;93095.47;;;14.86;100.00
11049;BME280;5577;42.706;23.160;2022-09-27T05:27:23;93109.03;;;15.02;100.00
11049;BME280;5577;42.706;23.160;2022-09-27T05:30:07;93106.75;;;15.00;100.00
11049;BME280;5577;42.706;23.160;2022-09-27T05:32:52;93096.00;;;15.11;100.00
11049;BME280;5577;42.706;23.160;2022-09-27T05:35:36;93116.41;;;15.21;100.00
11049;BME280;5577;42.706;23.160;2022-09-27T05:38:23;93123.94;;;15.29;100.00
11049;BME280;5577;42.706;23.160;2022-09-27T05:41:09;93127.69;;;15.39;100.00
11049;BME280;5577;42.706;23.160;2022-09-27T05:43:53;93109.41;;;15.37;100.00
11049;BME280;5577;42.706;23.160;2022-09-27T05:46:38;93093.06;;;15.32;100.00
11049;BME280;5577;42.706;23.160;2022-09-27T05:49:22;93105.84;;;15.47;100.00
11049;BME280;5577;42.706;23.160;2022-09-27T05:52:06;93114.97;;;15.50;100.00
11049;BME280;5577;42.706;23.160;2022-09-27T05:54:50;93122.16;;;15.53;100.00
11049;BME280;5577;42.706;23.160;2022-09-27T05:57:34;93102.69;;;15.56;100.00
11049;BME280;5577;42.706;23.160;2022-09-27T06:00:18;93111.81;;;15.58;100.00
11049;BME280;5577;42.706;23.160;2022-09-27T06:03:04;93105.66;;;15.61;100.00
11049;BME280;5577;42.706;23.160;2022-09-27T06:05:48;93105.94;;;15.70;100.00
11049;BME280;5577;42.706;23.160;2022-09-27T06:08:33;93109.75;;;15.69;100.00
11049;BME280;5577;42.706;23.160;2022-09-27T06:11:18;93104.06;;;15.67;100.00
11049;BME280;5577;42.706;23.160;2022-09-27T06:14:02;93121.25;;;15.63;100.00
11049;BME280;5577;42.706;23.160;2022-09-27T06:16:46;93127.47;;;15.53;100.00
11049;BME280;5577;42.706;23.160;2022-09-27T06:19:29;93133.94;;;15.55;100.00
11049;BME280;5577;42.706;23.160;2022-09-27T06:22:14;93088.97;;;15.24;100.00
11049;BME280;5577;42.706;23.160;2022-09-27T06:24:57;93141.41;;;15.37;100.00
11049;BME280;5577;42.706;23.160;2022-09-27T06:27:43;93103.22;;;15.10;100.00
11049;BME280;5577;42.706;23.160;2022-09-27T06:30:27;93138.91;;;15.20;100.00
11049;BME280;5577;42.706;23.160;2022-09-27T06:33:14;93100.78;;;14.89;100.00
11049;BME280;5577;42.706;23.160;2022-09-27T06:36:05;93139.38;;;15.11;100.00
11049;BME280;5577;42.706;23.160;2022-09-27T06:38:49;93140.84;;;15.16;100.00
11049;BME280;5577;42.706;23.160;2022-09-27T06:41:33;93134.03;;;15.15;100.00
11049;BME280;5577;42.706;23.160;2022-09-27T06:44:18;93117.34;;;15.07;100.00
11049;BME280;5577;42.706;23.160;2022-09-27T06:47:02;93112.00;;;15.07;100.00
11049;BME280;5577;42.706;23.160;2022-09-27T06:49:46;93104.84;;;15.01;100.00
11049;BME280;5577;42.706;23.160;2022-09-27T06:52:31;93124.25;;;15.01;100.00
11049;BME280;5577;42.706;23.160;2022-09-27T06:55:15;93126.81;;;15.12;100.00
11049;BME280;5577;42.706;23.160;2022-09-27T06:58:00;93132.50;;;15.14;100.00
11049;BME280;5577;42.706;23.160;2022-09-27T07:01:03;93119.75;;;15.28;100.00
11049;BME280;5577;42.706;23.160;2022-09-27T07:03:50;93129.97;;;15.37;100.00
11049;BME280;5577;42.706;23.160;2022-09-27T07:06:34;93133.31;;;15.44;100.00
11049;BME280;5577;42.706;23.160;2022-09-27T07:09:20;93154.91;;;15.57;100.00
11049;BME280;5577;42.706;23.160;2022-09-27T07:12:04;93162.59;;;15.51;100.00
11049;BME280;5577;42.706;23.160;2022-09-27T07:14:48;93161.06;;;15.50;100.00
11049;BME280;5577;42.706;23.160;2022-09-27T07:17:32;93166.78;;;15.49;100.00
11049;BME280;5577;42.706;23.160;2022-09-27T07:20:18;93174.03;;;15.48;100.00
11049;BME280;5577;42.706;23.160;2022-09-27T07:23:07;93171.91;;;15.66;100.00
11049;BME280;5577;42.706;23.160;2022-09-27T07:25:51;93172.91;;;15.79;100.00
11049;BME280;5577;42.706;23.160;2022-09-27T07:28:36;93164.13;;;15.79;100.00
11049;BME280;5577;42.706;23.160;2022-09-27T07:31:20;93167.16;;;15.81;100.00
11049;BME280;5577;42.706;23.160;2022-09-27T07:34:04;93171.59;;;15.91;100.00
11049;BME280;5577;42.706;23.160;2022-09-27T07:36:48;93161.84;;;16.07;100.00
11049;BME280;5577;42.706;23.160;2022-09-27T07:39:32;93162.50;;;16.15;100.00
11049;BME280;5577;42.706;23.160;2022-09-27T07:42:16;93150.34;;;16.10;100.00
11049;BME280;5577;42.706;23.160;2022-09-27T07:45:00;93145.97;;;16.23;100.00
11049;BME280;5577;42.706;23.160;2022-09-27T07:47:44;93132.53;;;16.04;100.00
11049;BME280;5577;42.706;23.160;2022-09-27T07:50:28;93132.53;;;16.04;100.00
11049;BME280;5577;42.706;23.160;2022-09-27T07:53:12;93125.69;;;16.03;100.00
11049;BME280;5577;42.706;23.160;2022-09-27T07:55:56;93148.13;;;16.05;100.00
11049;BME280;5577;42.706;23.160;2022-09-27T07:58:41;93138.81;;;15.90;100.00
11049;BME280;5577;42.706;23.160;2022-09-27T08:01:26;93152.59;;;15.85;100.00
11049;BME280;5577;42.706;23.160;2022-09-27T08:04:10;93161.72;;;15.88;100.00
11049;BME280;5577;42.706;23.160;2022-09-27T08:06:54;93166.44;;;15.77;100.00
11049;BME280;5577;42.706;23.160;2022-09-27T08:09:38;93141.09;;;15.62;100.00
11049;BME280;5577;42.706;23.160;2022-09-27T08:12:22;93117.66;;;15.46;100.00
11049;BME280;5577;42.706;23.160;2022-09-27T08:15:07;93141.72;;;15.73;100.00
11049;BME280;5577;42.706;23.160;2022-09-27T08:17:52;93135.53;;;15.79;100.00
11049;BME280;5577;42.706;23.160;2022-09-27T08:20:36;93132.78;;;15.86;100.00
11049;BME280;5577;42.706;23.160;2022-09-27T08:23:20;93125.22;;;16.08;100.00
11049;BME280;5577;42.706;23.160;2022-09-27T08:26:04;93122.00;;;16.20;100.00
11049;BME280;5577;42.706;23.160;2022-09-27T08:28:48;93111.72;;;16.45;100.00
11049;BME280;5577;42.706;23.160;2022-09-27T08:31:32;93102.56;;;16.65;100.00
11049;BME280;5577;42.706;23.160;2022-09-27T08:34:17;93093.09;;;16.84;100.00
11049;BME280;5577;42.706;23.160;2022-09-27T08:37:03;93094.63;;;17.44;100.00
11049;BME280;5577;42.706;23.160;2022-09-27T08:39:47;93093.22;;;18.10;100.00
11049;BME280;5577;42.706;23.160;2022-09-27T08:42:45;93076.06;;;18.56;100.00
11049;BME280;5577;42.706;23.160;2022-09-27T08:45:45;93065.84;;;18.95;100.00
11049;BME280;5577;42.706;23.160;2022-09-27T08:48:34;93021.31;;;18.85;100.00
11049;BME280;5577;42.706;23.160;2022-09-27T08:51:23;93063.84;;;19.28;100.00
11049;BME280;5577;42.706;23.160;2022-09-27T08:54:21;93040.81;;;19.14;100.00
11049;BME280;5577;42.706;23.160;2022-09-27T08:57:10;93038.13;;;19.43;100.00
11049;BME280;5577;42.706;23.160;2022-09-27T09:00:05;93050.06;;;19.67;100.00
11049;BME280;5577;42.706;23.160;2022-09-27T09:02:50;93053.47;;;19.55;100.00
11049;BME280;5577;42.706;23.160;2022-09-27T09:05:35;93057.44;;;19.38;100.00
11049;BME280;5577;42.706;23.160;2022-09-27T09:12:18;93057.72;;;18.99;100.00
11049;BME280;5577;42.706;23.160;2022-09-27T09:18:41;93042.69;;;19.30;100.00
11049;BME280;5577;42.706;23.160;2022-09-27T09:21:39;93039.69;;;19.82;100.00
11049;BME280;5577;42.706;23.160;2022-09-27T09:24:46;93008.94;;;19.83;100.00
11049;BME280;5577;42.706;23.160;2022-09-27T09:30:32;93032.56;;;20.25;100.00
11049;BME280;5577;42.706;23.160;2022-09-27T09:33:46;93022.88;;;20.74;100.00
11049;BME280;5577;42.706;23.160;2022-09-27T09:36:55;93020.59;;;21.50;100.00
11049;BME280;5577;42.706;23.160;2022-09-27T09:39:49;93023.88;;;22.06;100.00
11049;BME280;5577;42.706;23.160;2022-09-27T09:42:44;93009.88;;;22.29;100.00
11049;BME280;5577;42.706;23.160;2022-09-27T09:45:39;93025.69;;;22.09;100.00
11049;BME280;5577;42.706;23.160;2022-09-27T09:48:40;93021.69;;;21.83;100.00
11049;BME280;5577;42.706;23.160;2022-09-27T09:51:31;93024.88;;;22.39;100.00
11049;BME280;5577;42.706;23.160;2022-09-27T09:57:15;93013.31;;;22.38;100.00
11049;BME280;5577;42.706;23.160;2022-09-27T10:00:06;93024.50;;;22.10;100.00
11049;BME280;5577;42.706;23.160;2022-09-27T10:02:58;93014.75;;;21.21;100.00
11049;BME280;5577;42.706;23.160;2022-09-27T10:05:43;92978.88;;;20.47;100.00
11049;BME280;5577;42.706;23.160;2022-09-27T10:08:28;93016.91;;;20.58;100.00
11049;BME280;5577;42.706;23.160;2022-09-27T10:11:24;93008.97;;;20.54;100.00
11049;BME280;5577;42.706;23.160;2022-09-27T10:14:15;93006.97;;;20.67;100.00
11049;BME280;5577;42.706;23.160;2022-09-27T10:17:02;92980.50;;;20.78;100.00
11049;BME280;5577;42.706;23.160;2022-09-27T10:19:49;92989.34;;;21.00;100.00
11049;BME280;5577;42.706;23.160;2022-09-27T10:22:43;92989.97;;;21.04;100.00
11049;BME280;5577;42.706;23.160;2022-09-27T10:31:34;92969.97;;;20.37;100.00
11049;BME280;5577;42.706;23.160;2022-09-27T10:37:19;92969.94;;;20.50;100.00
11049;BME280;5577;42.706;23.160;2022-09-27T10:40:25;92967.50;;;21.20;100.00
11049;BME280;5577;42.706;23.160;2022-09-27T10:43:33;92957.22;;;21.97;100.00
11049;BME280;5577;42.706;23.160;2022-09-27T10:46:29;92954.22;;;22.71;100.00
11049;BME280;5577;42.706;23.160;2022-09-27T10:49:28;92946.69;;;22.93;100.00
11049;BME280;5577;42.706;23.160;2022-09-27T10:52:18;92950.13;;;23.21;100.00
11049;BME280;5577;42.706;23.160;2022-09-27T10:55:38;92941.06;;;23.83;100.00
11049;BME280;5577;42.706;23.160;2022-09-27T10:58:36;92942.47;;;24.35;100.00
11049;BME280;5577;42.706;23.160;2022-09-27T11:01:21;92947.00;;;24.52;100.00
11049;BME280;5577;42.706;23.160;2022-09-27T11:04:05;92950.13;;;24.36;100.00
11049;BME280;5577;42.706;23.160;2022-09-27T11:06:50;92942.38;;;23.97;100.00
11049;BME280;5577;42.706;23.160;2022-09-27T11:09:47;92940.72;;;23.99;100.00
11049;BME280;5577;42.706;23.160;2022-09-27T11:12:32;92926.44;;;23.66;100.00
11049;BME280;5577;42.706;23.160;2022-09-27T11:15:18;92928.06;;;23.13;100.00
11049;BME280;5577;42.706;23.160;2022-09-27T11:21:18;92908.19;;;23.43;100.00
11049;BME280;5577;42.706;23.160;2022-09-27T11:24:19;92910.41;;;23.63;100.00
11049;BME280;5577;42.706;23.160;2022-09-27T11:39:28;92882.88;;;24.67;100.00
11049;BME280;5577;42.706;23.160;2022-09-27T11:49:27;92880.47;;;25.13;99.05
11049;BME280;5577;42.706;23.160;2022-09-27T11:52:39;92876.66;;;25.05;99.36
11049;BME280;5577;42.706;23.160;2022-09-27T11:59:24;92857.28;;;25.90;97.72
11049;BME280;5577;42.706;23.160;2022-09-27T12:10:37;92843.97;;;26.27;92.10
11049;BME280;5577;42.706;23.160;2022-09-27T12:13:37;92841.25;;;26.07;81.75
11049;BME280;5577;42.706;23.160;2022-09-27T12:16:23;92831.97;;;26.13;84.91
11049;BME280;5577;42.706;23.160;2022-09-27T12:19:22;92808.88;;;26.43;82.48
11049;BME280;5577;42.706;23.160;2022-09-27T12:22:12;92819.00;;;26.43;79.54
11049;BME280;5577;42.706;23.160;2022-09-27T12:24:58;92806.31;;;26.80;81.95
11049;BME280;5577;42.706;23.160;2022-09-27T12:27:45;92779.06;;;26.69;79.52
11049;BME280;5577;42.706;23.160;2022-09-27T12:30:34;92798.09;;;27.00;76.37
11049;BME280;5577;42.706;23.160;2022-09-27T12:33:32;92783.53;;;26.72;72.11
11049;BME280;5577;42.706;23.160;2022-09-27T12:36:22;92790.41;;;26.22;73.06
11049;BME280;5577;42.706;23.160;2022-09-27T12:42:23;92693.09;;;26.09;82.32
11049;BME280;5577;42.706;23.160;2022-09-27T12:45:12;92771.63;;;26.64;77.69
11049;BME280;5577;42.706;23.160;2022-09-27T12:48:10;92757.38;;;26.23;80.89
11049;BME280;5577;42.706;23.160;2022-09-27T12:51:09;92746.31;;;25.87;83.34
11049;BME280;5577;42.706;23.160;2022-09-27T12:54:17;92758.41;;;26.06;84.41
11049;BME280;5577;42.706;23.160;2022-09-27T13:00:19;92768.22;;;25.83;88.15
11049;BME280;5577;42.706;23.160;2022-09-27T13:12:15;92769.59;;;26.13;81.93
11049;BME280;5577;42.706;23.160;2022-09-27T13:15:13;92792.75;;;26.14;79.06
11049;BME280;5577;42.706;23.160;2022-09-27T13:18:01;92772.50;;;26.10;83.83
11049;BME280;5577;42.706;23.160;2022-09-27T13:20:48;92771.41;;;26.22;80.90
11049;BME280;5577;42.706;23.160;2022-09-27T13:29:30;92761.72;;;25.95;81.42
11049;BME280;5577;42.706;23.160;2022-09-27T13:32:20;92759.63;;;25.65;83.96
11049;BME280;5577;42.706;23.160;2022-09-27T13:35:21;92766.53;;;25.31;89.90
11049;BME280;5577;42.706;23.160;2022-09-27T13:38:21;92766.28;;;24.56;93.89
11049;BME280;5577;42.706;23.160;2022-09-27T13:41:18;92783.91;;;24.23;100.00
11049;BME280;5577;42.706;23.160;2022-09-27T13:47:32;92787.03;;;23.60;100.00
11049;BME280;5577;42.706;23.160;2022-09-27T13:50:27;92794.84;;;23.58;100.00
11049;BME280;5577;42.706;23.160;2022-09-27T13:59:49;92805.50;;;23.20;100.00
11049;BME280;5577;42.706;23.160;2022-09-27T14:02:54;92802.59;;;23.00;100.00
11049;BME280;5577;42.706;23.160;2022-09-27T14:05:59;92791.06;;;22.90;100.00
11049;BME280;5577;42.706;23.160;2022-09-27T14:08:48;92779.69;;;22.86;100.00
11049;BME280;5577;42.706;23.160;2022-09-27T14:11:39;92768.06;;;22.71;100.00
11049;BME280;5577;42.706;23.160;2022-09-27T14:14:28;92795.38;;;22.46;100.00
11049;BME280;5577;42.706;23.160;2022-09-27T14:17:13;92794.00;;;22.41;100.00
11049;BME280;5577;42.706;23.160;2022-09-27T14:19:57;92802.59;;;22.31;100.00
11049;BME280;5577;42.706;23.160;2022-09-27T14:22:41;92788.78;;;22.38;100.00
11049;BME280;5577;42.706;23.160;2022-09-27T14:25:25;92774.38;;;22.41;100.00
11049;BME280;5577;42.706;23.160;2022-09-27T14:28:27;92742.66;;;22.27;100.00
11049;BME280;5577;42.706;23.160;2022-09-27T14:31:13;92761.97;;;22.25;100.00
11049;BME280;5577;42.706;23.160;2022-09-27T14:34:05;92753.50;;;22.00;100.00
11049;BME280;5577;42.706;23.160;2022-09-27T14:36:51;92754.81;;;21.86;100.00
11049;BME280;5577;42.706;23.160;2022-09-27T14:40:05;92732.03;;;21.42;100.00
11049;BME280;5577;42.706;23.160;2022-09-27T14:42:55;92726.59;;;21.15;100.00
11049;BME280;5577;42.706;23.160;2022-09-27T14:45:41;92769.81;;;21.21;100.00
11049;BME280;5577;42.706;23.160;2022-09-27T14:48:30;92787.72;;;21.15;100.00
11049;BME280;5577;42.706;23.160;2022-09-27T14:51:25;92819.66;;;20.95;100.00
11049;BME280;5577;42.706;23.160;2022-09-27T14:54:23;92835.66;;;19.44;100.00
11049;BME280;5577;42.706;23.160;2022-09-27T14:57:10;92902.03;;;18.90;100.00
11049;BME280;5577;42.706;23.160;2022-09-27T14:59:56;92913.31;;;17.67;100.00
11049;BME280;5577;42.706;23.160;2022-09-27T15:02:41;92862.22;;;15.57;100.00
11049;BME280;5577;42.706;23.160;2022-09-27T15:05:29;92856.88;;;15.57;100.00
11049;BME280;5577;42.706;23.160;2022-09-27T15:08:16;92880.75;;;15.64;100.00
11049;BME280;5577;42.706;23.160;2022-09-27T15:11:03;92920.16;;;15.57;100.00
11049;BME280;5577;42.706;23.160;2022-09-27T15:13:53;92903.41;;;15.30;100.00
11049;BME280;5577;42.706;23.160;2022-09-27T15:16:38;92948.63;;;15.10;100.00
11049;BME280;5577;42.706;23.160;2022-09-27T15:19:29;92939.63;;;15.01;100.00
11049;BME280;5577;42.706;23.160;2022-09-27T15:25:35;92933.97;;;14.69;100.00
11049;BME280;5577;42.706;23.160;2022-09-27T15:28:20;92927.00;;;14.45;100.00
11049;BME280;5577;42.706;23.160;2022-09-27T15:31:05;92942.38;;;14.30;100.00
11049;BME280;5577;42.706;23.160;2022-09-27T15:33:53;92997.50;;;14.29;100.00
11049;BME280;5577;42.706;23.160;2022-09-27T15:39:39;92930.88;;;14.40;100.00
11049;BME280;5577;42.706;23.160;2022-09-27T15:42:24;92922.31;;;14.56;100.00
11049;BME280;5577;42.706;23.160;2022-09-27T15:45:29;92923.03;;;14.56;100.00
11049;BME280;5577;42.706;23.160;2022-09-27T15:48:16;92960.84;;;14.78;100.00
11049;BME280;5577;42.706;23.160;2022-09-27T15:51:00;92975.81;;;14.98;100.00
11049;BME280;5577;42.706;23.160;2022-09-27T15:53:45;92963.94;;;15.03;100.00
11049;BME280;5577;42.706;23.160;2022-09-27T15:56:29;92967.31;;;15.07;100.00
11049;BME280;5577;42.706;23.160;2022-09-27T15:59:22;92994.81;;;15.00;100.00
11049;BME280;5577;42.706;23.160;2022-09-27T16:02:14;92984.44;;;14.79;100.00
11049;BME280;5577;42.706;23.160;2022-09-27T16:04:59;93009.78;;;14.91;100.00
11049;BME280;5577;42.706;23.160;2022-09-27T16:07:43;93020.59;;;15.10;100.00
11049;BME280;5577;42.706;23.160;2022-09-27T16:10:35;93030.66;;;14.96;100.00
11049;BME280;5577;42.706;23.160;2022-09-27T16:13:22;93015.06;;;14.94;100.00
11049;BME280;5577;42.706;23.160;2022-09-27T16:16:13;93022.34;;;14.90;100.00
11049;BME280;5577;42.706;23.160;2022-09-27T16:18:57;93012.94;;;14.49;100.00
11049;BME280;5577;42.706;23.160;2022-09-27T16:21:41;93052.59;;;14.73;100.00
11049;BME280;5577;42.706;23.160;2022-09-27T16:24:25;93022.72;;;14.92;100.00
11049;BME280;5577;42.706;23.160;2022-09-27T16:27:11;93023.28;;;15.07;100.00
11049;BME280;5577;42.706;23.160;2022-09-27T16:29:55;92982.47;;;15.13;100.00
11049;BME280;5577;42.706;23.160;2022-09-27T16:32:42;92970.56;;;15.21;100.00
11049;BME280;5577;42.706;23.160;2022-09-27T16:35:27;92958.09;;;15.15;100.00
11049;BME280;5577;42.706;23.160;2022-09-27T16:38:11;92946.59;;;14.91;100.00
11049;BME280;5577;42.706;23.160;2022-09-27T16:41:02;92955.34;;;14.62;100.00
11049;BME280;5577;42.706;23.160;2022-09-27T16:43:47;92988.38;;;14.68;100.00
11049;BME280;5577;42.706;23.160;2022-09-27T16:46:31;93001.34;;;14.66;100.00
11049;BME280;5577;42.706;23.160;2022-09-27T16:49:17;93023.31;;;14.73;100.00
11049;BME280;5577;42.706;23.160;2022-09-27T16:52:19;92988.81;;;14.63;100.00
11049;BME280;5577;42.706;23.160;2022-09-27T16:55:04;93014.19;;;14.74;100.00
11049;BME280;5577;42.706;23.160;2022-09-27T16:57:50;93021.34;;;14.77;100.00
11049;BME280;5577;42.706;23.160;2022-09-27T17:00:34;93040.38;;;14.79;100.00
11049;BME280;5577;42.706;23.160;2022-09-27T17:03:18;93065.91;;;15.10;100.00
11049;BME280;5577;42.706;23.160;2022-09-27T17:06:02;93073.41;;;15.19;100.00
11049;BME280;5577;42.706;23.160;2022-09-27T17:08:47;93081.34;;;15.22;100.00
11049;BME280;5577;42.706;23.160;2022-09-27T17:11:31;93060.50;;;15.14;100.00
11049;BME280;5577;42.706;23.160;2022-09-27T17:14:16;93082.22;;;15.16;100.00
11049;BME280;5577;42.706;23.160;2022-09-27T17:17:01;93084.88;;;15.16;100.00